CheckWX is a tool to help pilots better visualize weather data.  It is not intended as a substitute for an official pre-flight weather briefing.

13:13:32 UTC

KNGU METAR
Norfolk NS (Chambers Field) Airport
Norfolk, Virginia, USA
Current

15 mins ago

KNGU 221259Z 04009KT 3SM -RA BR BKN041 BKN050 OVC080 06/04 A3036 RMK AO2 SLP279 P0014 T00610039
Observed
Feb-22 @ 12:59 UTC
Wind
  • 040° at 9 KTS
Visibility
3 SM
Flight Rules
MVFR
Conditions
Light Rain, Mist
Cloud Levels
  • Broken at 4,100' AGL
  • Broken at 5,000' AGL
  • Overcast at 8,000' AGL
Temperature
C / 43°F
Dewpoint
C / 39°F
Humidity
87%
Altimeter
30.36" Hg
Pressure
1027.9 hPa
Current Rain
0.14"
Previous

1 hour ago

KNGU 221159Z 04010KT 4SM RA BKN070 OVC090 07/03 A3031 RMK AO2 SLP263 P0011 60018 70024 T00670033 10083 20067 53017
Observed
Feb-22 @ 11:59 UTC
Wind
  • 040° at 10 KTS
Visibility
4 SM
Flight Rules
MVFR
Conditions
Rain
Cloud Levels
  • Broken at 7,000' AGL
  • Overcast at 9,000' AGL
Temperature
C / 45°F
Dewpoint
C / 37°F
Humidity
76%
Altimeter
30.31" Hg
Pressure
1026.3 hPa
Current Rain
0.11"
Previous

2 hours ago

KNGU 221059Z 04007KT 8SM -RA FEW080 OVC100 08/04 A3028 RMK AO2 SLP253 P0003 T00780044
Observed
Feb-22 @ 10:59 UTC
Wind
  • 040° at 7 KTS
Visibility
8 SM
Flight Rules
VFR
Conditions
Light Rain
Cloud Levels
  • Few at 8,000' AGL
  • Overcast at 10,000' AGL
Temperature
C / 46°F
Dewpoint
C / 39°F
Humidity
76%
Altimeter
30.28" Hg
Pressure
1025.3 hPa
Current Rain
0.03"